createdAt,value
2022-11-20T00:00:03.395Z,92707.69
2022-11-20T00:03:10.017Z,92703.31
2022-11-20T00:06:16.450Z,92705.34
2022-11-20T00:09:19.865Z,92707.84
2022-11-20T00:12:23.093Z,92710.38
2022-11-20T00:15:26.344Z,92716.25
2022-11-20T00:18:30.216Z,92714.75
2022-11-20T00:21:33.513Z,92713.06
2022-11-20T00:24:41.687Z,92716.41
2022-11-20T00:27:45.972Z,92716.41
2022-11-20T00:30:48.905Z,92718.59
2022-11-20T00:33:52.420Z,92720.78
2022-11-20T00:36:55.995Z,92717.91
2022-11-20T00:39:59.090Z,92715.56
2022-11-20T00:43:02.058Z,92721.09
2022-11-20T00:46:14.648Z,92712.34
2022-11-20T00:49:17.851Z,92723.13
2022-11-20T00:52:20.877Z,92718.75
2022-11-20T00:55:23.852Z,92717.25
2022-11-20T00:58:30.344Z,92721.41
2022-11-20T01:01:33.509Z,92722.06
2022-11-20T01:04:36.591Z,92717.69
2022-11-20T01:07:39.640Z,92713.09
2022-11-20T01:10:42.711Z,92714.91
2022-11-20T01:13:47.446Z,92717.56
2022-11-20T01:16:52.892Z,92719.88
2022-11-20T01:19:56.120Z,92713.59
2022-11-20T01:22:59.086Z,92712.72
2022-11-20T01:26:04.198Z,92715.91
2022-11-20T01:29:08.644Z,92709.59
2022-11-20T01:32:11.665Z,92713.97
2022-11-20T01:35:14.800Z,92711.75
2022-11-20T01:38:18.796Z,92705.84
2022-11-20T01:41:41.856Z,92697.19
2022-11-20T01:44:55.354Z,92695.50
2022-11-20T01:47:58.419Z,92700.69
2022-11-20T01:51:03.019Z,92697.75
2022-11-20T01:54:11.471Z,92689.75
2022-11-20T01:57:15.774Z,92688.03
2022-11-20T02:00:19.734Z,92684.47
2022-11-20T02:03:23.078Z,92681.59
2022-11-20T02:06:33.541Z,92686.94
2022-11-20T02:09:36.907Z,92680.84
2022-11-20T02:12:58.828Z,92687.03
2022-11-20T02:16:02.549Z,92686.81
2022-11-20T02:19:13.603Z,92679.66
2022-11-20T02:22:28.186Z,92672.66
2022-11-20T02:25:31.993Z,92678.47
2022-11-20T02:28:35.595Z,92684.44
2022-11-20T02:31:41.940Z,92680.97
2022-11-20T02:34:45.056Z,92680.09
2022-11-20T02:37:54.567Z,92685.44
2022-11-20T02:40:57.703Z,92680.81
2022-11-20T02:44:00.863Z,92695.25
2022-11-20T02:47:04.068Z,92687.34
2022-11-20T02:50:07.892Z,92692.72
2022-11-20T02:53:11.077Z,92687.06
2022-11-20T02:56:14.501Z,92688.00
2022-11-20T02:59:17.398Z,92676.97
2022-11-20T03:02:20.364Z,92684.31
2022-11-20T03:05:23.855Z,92691.28
2022-11-20T03:08:27.280Z,92689.69
2022-11-20T03:11:30.647Z,92688.91
2022-11-20T03:14:33.633Z,92686.28
2022-11-20T03:17:36.813Z,92684.47
2022-11-20T03:20:39.847Z,92680.44
2022-11-20T03:23:43.153Z,92683.53
2022-11-20T03:26:46.254Z,92669.63
2022-11-20T03:29:49.227Z,92669.38
2022-11-20T03:32:55.557Z,92654.84
2022-11-20T03:36:03.716Z,92660.56
2022-11-20T03:39:07.137Z,92660.19
2022-11-20T03:42:30.607Z,92657.13
2022-11-20T03:45:33.532Z,92657.78
2022-11-20T03:48:36.490Z,92655.75
2022-11-20T03:51:39.718Z,92651.22
2022-11-20T03:54:42.876Z,92652.69
2022-11-20T03:57:46.242Z,92643.31
2022-11-20T04:00:49.360Z,92635.53
2022-11-20T04:03:55.019Z,92633.66
2022-11-20T04:06:58.148Z,92635.38
2022-11-20T04:10:01.272Z,92626.94
2022-11-20T04:13:04.622Z,92632.38
2022-11-20T04:16:09.040Z,92630.56
2022-11-20T04:19:17.640Z,92634.94
2022-11-20T04:22:20.806Z,92633.19
2022-11-20T04:25:27.590Z,92626.84
2022-11-20T04:28:31.147Z,92622.00
2022-11-20T04:31:36.339Z,92622.31
2022-11-20T04:34:40.028Z,92617.38
2022-11-20T04:37:43.996Z,92617.50
2022-11-20T04:40:47.025Z,92608.63
2022-11-20T04:43:51.840Z,92608.69
2022-11-20T04:46:55.185Z,92615.84
2022-11-20T04:49:58.833Z,92606.25
2022-11-20T04:53:02.262Z,92614.34
2022-11-20T04:56:09.345Z,92608.66
2022-11-20T04:59:12.726Z,92601.53
2022-11-20T05:02:16.336Z,92600.09
2022-11-20T05:05:21.409Z,92600.66
2022-11-20T05:08:24.836Z,92599.00
2022-11-20T05:11:30.583Z,92600.88
2022-11-20T05:14:34.367Z,92590.03
2022-11-20T05:17:38.478Z,92592.91
2022-11-20T05:20:41.605Z,92590.91
2022-11-20T05:23:46.087Z,92587.25
2022-11-20T05:26:49.321Z,92582.88
2022-11-20T05:29:52.559Z,92574.56
2022-11-20T05:32:55.744Z,92574.25
2022-11-20T05:36:02.087Z,92574.00
2022-11-20T05:39:05.495Z,92569.56
2022-11-20T05:42:26.923Z,92571.47
2022-11-20T05:45:30.548Z,92567.38
2022-11-20T05:48:35.232Z,92568.25
2022-11-20T05:51:38.755Z,92571.72
2022-11-20T05:54:42.111Z,92574.38
2022-11-20T05:57:45.344Z,92565.63
2022-11-20T06:00:48.533Z,92562.19
2022-11-20T06:03:52.391Z,92566.84
2022-11-20T06:06:55.564Z,92569.09
2022-11-20T06:09:58.733Z,92561.75
2022-11-20T06:13:02.384Z,92571.72
2022-11-20T06:16:06.312Z,92563.88
2022-11-20T06:19:10.040Z,92555.19
2022-11-20T06:22:13.336Z,92565.81
2022-11-20T06:25:16.713Z,92559.28
2022-11-20T06:28:19.826Z,92562.38
2022-11-20T06:31:25.185Z,92562.22
2022-11-20T06:34:28.462Z,92561.13
2022-11-20T06:37:31.773Z,92562.84
2022-11-20T06:40:35.248Z,92563.47
2022-11-20T06:43:38.573Z,92561.03
2022-11-20T06:46:44.947Z,92559.81
2022-11-20T06:49:48.271Z,92558.38
2022-11-20T06:52:51.339Z,92555.72
2022-11-20T06:55:58.732Z,92553.72
2022-11-20T06:59:06.956Z,92553.06
2022-11-20T07:02:15.351Z,92549.19
2022-11-20T07:05:19.625Z,92547.41
2022-11-20T07:08:22.773Z,92544.84
2022-11-20T07:11:26.061Z,92546.28
2022-11-20T07:14:29.586Z,92536.28
2022-11-20T07:17:32.776Z,92535.06
2022-11-20T07:20:35.976Z,92540.47
2022-11-20T07:23:41.988Z,92538.97
2022-11-20T07:26:49.363Z,92544.59
2022-11-20T07:29:52.809Z,92543.44
2022-11-20T07:32:57.713Z,92546.03
2022-11-20T07:36:01.894Z,92539.00
2022-11-20T07:39:05.154Z,92539.03
2022-11-20T07:42:09.061Z,92537.72
2022-11-20T07:45:14.187Z,92536.44
2022-11-20T07:48:17.800Z,92544.75
2022-11-20T07:51:21.143Z,92547.56
2022-11-20T07:54:25.153Z,92550.22
2022-11-20T07:57:28.573Z,92554.00
2022-11-20T08:00:32.178Z,92547.13
2022-11-20T08:03:35.881Z,92554.00
2022-11-20T08:06:39.127Z,92550.69
2022-11-20T08:09:42.563Z,92557.09
2022-11-20T08:13:10.390Z,92555.84
2022-11-20T08:16:13.741Z,92555.47
2022-11-20T08:19:20.046Z,92555.44
2022-11-20T08:22:23.673Z,92560.78
2022-11-20T08:25:26.715Z,92556.88
2022-11-20T08:28:30.056Z,92559.28
2022-11-20T08:31:33.567Z,92555.81
2022-11-20T08:34:36.642Z,92562.31
2022-11-20T08:37:43.030Z,92568.94
2022-11-20T08:41:05.998Z,92572.34
2022-11-20T08:44:10.293Z,92574.66
2022-11-20T08:47:14.985Z,92581.50
2022-11-20T08:50:19.136Z,92582.44
2022-11-20T08:53:22.692Z,92585.78
2022-11-20T08:56:25.941Z,92580.75
2022-11-20T08:59:58.672Z,92588.34
2022-11-20T09:02:53.772Z,92590.91
2022-11-20T09:06:00.974Z,92590.22
2022-11-20T09:09:06.809Z,92591.03
2022-11-20T09:12:10.286Z,92593.41
2022-11-20T09:15:14.300Z,92596.38
2022-11-20T09:18:17.504Z,92590.47
2022-11-20T09:21:20.901Z,92593.94
2022-11-20T09:24:24.293Z,92594.75
2022-11-20T09:27:27.392Z,92600.34
2022-11-20T09:30:30.610Z,92601.63
2022-11-20T09:33:33.904Z,92597.75
2022-11-20T09:36:37.535Z,92601.34
2022-11-20T09:39:41.462Z,92604.84
2022-11-20T09:43:12.100Z,92603.41
2022-11-20T09:46:36.737Z,92604.41
2022-11-20T09:50:01.816Z,92601.31
2022-11-20T09:53:17.061Z,92610.34
2022-11-20T09:56:22.991Z,92600.28
2022-11-20T09:59:42.632Z,92601.75
2022-11-20T10:02:45.753Z,92616.53
2022-11-20T10:06:02.048Z,92613.09
2022-11-20T10:09:32.782Z,92610.25
2022-11-20T10:12:36.027Z,92614.22
2022-11-20T10:16:30.632Z,92614.06
2022-11-20T10:19:47.291Z,92613.97
2022-11-20T10:23:07.093Z,92622.06
2022-11-20T10:26:42.595Z,92620.44
2022-11-20T10:29:51.218Z,92632.53
2022-11-20T10:32:58.057Z,92634.09
2022-11-20T10:36:15.431Z,92643.09
2022-11-20T10:39:51.293Z,92640.00
2022-11-20T10:43:30.027Z,92652.19
2022-11-20T10:47:09.530Z,92657.13
2022-11-20T10:50:24.211Z,92657.34
2022-11-20T10:54:10.216Z,92654.38
2022-11-20T10:57:51.935Z,92662.47
2022-11-20T11:01:15.377Z,92660.16
2022-11-20T11:04:30.855Z,92662.03
2022-11-20T11:07:40.938Z,92659.25
2022-11-20T11:10:48.829Z,92662.59
2022-11-20T11:14:07.220Z,92667.34
2022-11-20T11:17:28.510Z,92658.94
2022-11-20T11:20:33.456Z,92665.72
2022-11-20T11:23:44.838Z,92670.09
2022-11-20T11:27:05.588Z,92667.88
2022-11-20T11:30:19.452Z,92675.09
2022-11-20T11:33:25.328Z,92671.75
2022-11-20T11:36:28.517Z,92673.66
2022-11-20T11:39:33.147Z,92675.72
2022-11-20T11:42:36.146Z,92669.91
2022-11-20T11:45:39.426Z,92669.44
2022-11-20T11:48:44.829Z,92669.34
2022-11-20T11:52:02.540Z,92674.22
2022-11-20T11:55:11.447Z,92676.56
2022-11-20T11:58:42.790Z,92671.47
2022-11-20T12:01:59.888Z,92678.16
2022-11-20T12:05:13.571Z,92677.09
2022-11-20T12:08:25.392Z,92680.94
2022-11-20T12:12:10.232Z,92680.34
2022-11-20T12:15:18.033Z,92674.63
2022-11-20T12:18:23.332Z,92673.28
2022-11-20T12:21:47.711Z,92679.69
2022-11-20T12:25:15.093Z,92682.81
2022-11-20T12:28:23.477Z,92679.19
2022-11-20T12:31:34.910Z,92691.91
2022-11-20T12:34:56.338Z,92691.16
2022-11-20T12:38:26.339Z,92689.72
2022-11-20T12:42:02.379Z,92695.41
2022-11-20T12:45:31.411Z,92690.25
2022-11-20T12:48:53.927Z,92703.84
2022-11-20T12:52:12.434Z,92699.75
2022-11-20T12:55:27.733Z,92702.34
2022-11-20T12:58:47.976Z,92706.31
2022-11-20T13:02:28.328Z,92699.25
2022-11-20T13:06:12.179Z,92697.06
2022-11-20T13:09:18.715Z,92708.22
2022-11-20T13:12:37.987Z,92706.44
2022-11-20T13:15:52.259Z,92708.00
2022-11-20T13:18:55.410Z,92719.66
2022-11-20T13:21:58.439Z,92711.59
2022-11-20T13:25:01.410Z,92710.66
2022-11-20T13:28:31.355Z,92704.53
2022-11-20T13:31:36.938Z,92710.00
2022-11-20T13:34:40.293Z,92713.78
2022-11-20T13:37:43.345Z,92712.78
2022-11-20T13:40:57.474Z,92719.16
2022-11-20T13:44:10.918Z,92703.16
2022-11-20T13:47:27.180Z,92716.41
2022-11-20T13:50:41.289Z,92716.59
2022-11-20T13:54:05.307Z,92719.41
2022-11-20T13:57:26.647Z,92719.25
2022-11-20T14:00:29.892Z,92718.97
2022-11-20T14:06:59.846Z,92709.84
2022-11-20T14:10:02.921Z,92710.03
2022-11-20T14:13:19.585Z,92721.78
2022-11-20T14:16:23.746Z,92723.97
2022-11-20T14:19:32.258Z,92720.75
2022-11-20T14:22:35.451Z,92716.22
2022-11-20T14:25:39.048Z,92727.50
2022-11-20T14:28:42.136Z,92723.66
2022-11-20T14:31:49.955Z,92712.38
2022-11-20T14:34:58.789Z,92712.88
2022-11-20T14:38:03.834Z,92716.59
2022-11-20T14:41:17.955Z,92721.97
2022-11-20T14:44:29.966Z,92728.53
2022-11-20T14:47:33.432Z,92724.16
2022-11-20T14:50:36.479Z,92727.69
2022-11-20T14:53:39.575Z,92721.97
2022-11-20T14:56:42.659Z,92734.22
2022-11-20T14:59:45.686Z,92742.59
2022-11-20T15:02:52.617Z,92731.69
2022-11-20T15:05:55.634Z,92731.34
2022-11-20T15:08:59.141Z,92728.16
2022-11-20T15:12:04.091Z,92730.50
2022-11-20T15:15:08.274Z,92737.16
2022-11-20T15:18:24.055Z,92752.25
2022-11-20T15:21:27.244Z,92756.16
2022-11-20T15:24:32.114Z,92756.31
2022-11-20T15:27:35.095Z,92759.38
2022-11-20T15:30:38.266Z,92750.97
2022-11-20T15:33:41.656Z,92756.03
2022-11-20T15:36:45.569Z,92748.59
2022-11-20T15:39:50.263Z,92753.00
2022-11-20T15:43:09.909Z,92751.00
2022-11-20T15:46:27.901Z,92740.22
2022-11-20T15:49:31.542Z,92742.44
2022-11-20T15:52:41.931Z,92741.34
2022-11-20T15:55:45.392Z,92742.00
2022-11-20T15:58:48.578Z,92743.72
2022-11-20T16:01:52.021Z,92745.63
2022-11-20T16:04:55.488Z,92751.88
2022-11-20T16:07:59.883Z,92758.50
2022-11-20T16:11:03.324Z,92759.94
2022-11-20T16:14:25.596Z,92765.34
2022-11-20T16:17:44.170Z,92765.56
2022-11-20T16:20:49.165Z,92759.91
2022-11-20T16:23:52.143Z,92767.38
2022-11-20T16:26:56.099Z,92764.19
2022-11-20T16:29:59.058Z,92766.41
2022-11-20T16:33:04.275Z,92767.94
2022-11-20T16:36:16.579Z,92760.44
2022-11-20T16:39:23.593Z,92760.59
2022-11-20T16:42:26.992Z,92760.84
2022-11-20T16:45:33.722Z,92753.59
2022-11-20T16:48:37.077Z,92750.31
2022-11-20T16:51:40.056Z,92751.06
2022-11-20T16:54:43.163Z,92750.97
2022-11-20T16:57:46.236Z,92745.97
2022-11-20T17:00:51.859Z,92746.81
2022-11-20T17:04:05.550Z,92739.66
2022-11-20T17:07:09.106Z,92746.00
2022-11-20T17:10:12.097Z,92746.94
2022-11-20T17:13:15.084Z,92737.22
2022-11-20T17:16:22.056Z,92746.31
2022-11-20T17:19:25.134Z,92744.38
2022-11-20T17:22:28.410Z,92745.22
2022-11-20T17:25:34.627Z,92750.66
2022-11-20T17:28:38.838Z,92755.94
2022-11-20T17:31:42.720Z,92761.69
2022-11-20T17:34:45.764Z,92761.56
2022-11-20T17:37:48.725Z,92760.03
2022-11-20T17:40:54.722Z,92756.44
2022-11-20T17:44:00.484Z,92760.22
2022-11-20T17:47:03.826Z,92757.31
2022-11-20T17:50:07.963Z,92749.91
2022-11-20T17:53:11.039Z,92757.63
2022-11-20T17:56:32.530Z,92759.72
2022-11-20T17:59:35.599Z,92763.19
2022-11-20T18:02:38.614Z,92758.72
2022-11-20T18:05:41.756Z,92756.56
2022-11-20T18:08:45.334Z,92754.41
2022-11-20T18:11:48.295Z,92752.97
2022-11-20T18:14:51.287Z,92756.47
2022-11-20T18:17:54.525Z,92764.19
2022-11-20T18:20:57.518Z,92775.41
2022-11-20T18:24:01.708Z,92771.41
2022-11-20T18:27:06.378Z,92761.84
2022-11-20T18:30:10.248Z,92762.06
2022-11-20T18:33:13.956Z,92761.09
2022-11-20T18:36:20.558Z,92756.47
2022-11-20T18:39:24.217Z,92760.22
2022-11-20T18:42:45.753Z,92759.06
2022-11-20T18:45:48.792Z,92751.50
2022-11-20T18:48:53.034Z,92761.31
2022-11-20T18:51:56.103Z,92763.09
2022-11-20T18:54:59.689Z,92767.81
2022-11-20T18:58:02.616Z,92772.81
2022-11-20T19:01:07.340Z,92779.81
2022-11-20T19:04:12.232Z,92770.56
2022-11-20T19:07:16.306Z,92771.66
2022-11-20T19:10:20.665Z,92771.09
2022-11-20T19:13:23.562Z,92779.91
2022-11-20T19:16:26.651Z,92779.06
2022-11-20T19:19:29.747Z,92768.31
2022-11-20T19:22:32.759Z,92765.59
2022-11-20T19:25:38.317Z,92763.47
2022-11-20T19:28:41.492Z,92757.31
2022-11-20T19:31:44.606Z,92754.91
2022-11-20T19:34:47.693Z,92759.69
2022-11-20T19:37:53.675Z,92767.09
2022-11-20T19:40:56.656Z,92769.00
2022-11-20T19:44:04.887Z,92770.63
2022-11-20T19:47:12.979Z,92771.06
2022-11-20T19:50:17.487Z,92770.22
2022-11-20T19:53:20.539Z,92763.97
2022-11-20T19:56:25.766Z,92767.81
2022-11-20T19:59:28.776Z,92774.84
2022-11-20T20:02:31.780Z,92769.25
2022-11-20T20:05:35.271Z,92767.22
2022-11-20T20:08:38.852Z,92771.38
2022-11-20T20:11:46.324Z,92778.41
2022-11-20T20:14:49.291Z,92779.47
2022-11-20T20:17:55.528Z,92778.59
2022-11-20T20:21:09.579Z,92774.81
2022-11-20T20:24:13.236Z,92778.75
2022-11-20T20:27:16.204Z,92769.25
2022-11-20T20:30:19.224Z,92779.69
2022-11-20T20:33:23.064Z,92782.88
2022-11-20T20:36:27.034Z,92782.75
2022-11-20T20:39:30.280Z,92782.47
2022-11-20T20:42:33.570Z,92781.81
2022-11-20T20:45:36.661Z,92781.19
2022-11-20T20:48:39.630Z,92782.56
2022-11-20T20:51:42.617Z,92780.63
2022-11-20T20:54:45.531Z,92788.34
2022-11-20T20:57:49.744Z,92795.41
2022-11-20T21:00:53.712Z,92801.53
2022-11-20T21:03:57.665Z,92797.19
2022-11-20T21:07:00.905Z,92802.25
2022-11-20T21:10:04.411Z,92802.50
2022-11-20T21:13:07.567Z,92808.91
2022-11-20T21:16:11.685Z,92810.81
2022-11-20T21:19:15.107Z,92808.47
2022-11-20T21:22:18.297Z,92818.41
2022-11-20T21:25:21.321Z,92809.16
2022-11-20T21:28:24.301Z,92813.75
2022-11-20T21:31:27.974Z,92820.38
2022-11-20T21:34:30.949Z,92820.38
2022-11-20T21:37:38.331Z,92817.13
2022-11-20T21:40:44.118Z,92819.16
2022-11-20T21:44:09.141Z,92823.09
2022-11-20T21:47:10.324Z,92833.34
2022-11-20T21:50:13.290Z,92831.38
2022-11-20T21:53:16.291Z,92835.47
2022-11-20T21:56:22.414Z,92833.44
2022-11-20T21:59:25.420Z,92843.16
2022-11-20T22:02:28.424Z,92839.78
2022-11-20T22:05:31.381Z,92836.69
2022-11-20T22:08:38.905Z,92852.06
2022-11-20T22:11:41.923Z,92852.91
2022-11-20T22:14:46.466Z,92840.88
2022-11-20T22:18:07.671Z,92854.94
2022-11-20T22:21:11.108Z,92863.53
2022-11-20T22:24:16.730Z,92857.97
2022-11-20T22:27:19.738Z,92860.41
2022-11-20T22:30:22.873Z,92863.72
2022-11-20T22:33:27.802Z,92873.75
2022-11-20T22:36:32.179Z,92871.19
2022-11-20T22:39:35.155Z,92860.16
2022-11-20T22:42:38.137Z,92861.06
2022-11-20T22:45:41.050Z,92863.00
2022-11-20T22:48:51.315Z,92862.22
2022-11-20T22:51:54.616Z,92866.34
2022-11-20T22:54:57.756Z,92868.09
2022-11-20T22:58:00.908Z,92875.97
2022-11-20T23:01:11.046Z,92870.69
2022-11-20T23:04:14.157Z,92879.09
2022-11-20T23:07:17.362Z,92874.22
2022-11-20T23:10:20.488Z,92876.47
2022-11-20T23:13:23.409Z,92879.94
2022-11-20T23:16:28.360Z,92887.38
2022-11-20T23:19:31.358Z,92891.88
2022-11-20T23:22:34.655Z,92899.69
2022-11-20T23:25:37.628Z,92913.22
2022-11-20T23:28:41.785Z,92913.00
2022-11-20T23:31:44.752Z,92923.81
2022-11-20T23:34:47.722Z,92915.47
2022-11-20T23:37:50.737Z,92911.03
2022-11-20T23:40:54.347Z,92926.84
2022-11-20T23:43:57.351Z,92924.59
2022-11-20T23:47:00.345Z,92936.09
2022-11-20T23:50:03.327Z,92931.25
2022-11-20T23:53:06.711Z,92945.25
2022-11-20T23:56:09.825Z,92946.75
2022-11-20T23:59:12.867Z,92955.31
